createdAt,value
2018-12-07T00:02:01.700Z,10.20
2018-12-07T00:04:28.992Z,10.03
2018-12-07T00:06:55.976Z,9.73
2018-12-07T00:09:22.984Z,9.97
2018-12-07T00:11:49.916Z,9.33
2018-12-07T00:14:16.919Z,9.77
2018-12-07T00:16:43.882Z,9.43
2018-12-07T00:19:10.804Z,9.43
2018-12-07T00:21:37.808Z,9.67
2018-12-07T00:24:04.715Z,10.00
2018-12-07T00:26:31.636Z,8.80
2018-12-07T00:28:58.563Z,9.40
2018-12-07T00:31:25.509Z,9.70
2018-12-07T00:33:52.495Z,9.90
2018-12-07T00:36:19.441Z,10.53
2018-12-07T00:38:46.417Z,9.67
2018-12-07T00:41:13.358Z,9.73
2018-12-07T00:43:40.406Z,10.07
2018-12-07T00:46:07.367Z,10.47
2018-12-07T00:48:34.329Z,10.47
2018-12-07T00:51:01.272Z,8.80
2018-12-07T00:53:28.220Z,9.10
2018-12-07T00:55:55.220Z,9.20
2018-12-07T00:58:22.157Z,9.27
2018-12-07T01:00:49.118Z,9.80
2018-12-07T01:03:16.100Z,8.60
2018-12-07T01:05:43.054Z,9.93
2018-12-07T01:08:09.966Z,9.10
2018-12-07T01:10:36.934Z,10.03
2018-12-07T01:13:03.918Z,9.53
2018-12-07T01:15:30.880Z,9.57
2018-12-07T01:17:57.820Z,8.77
2018-12-07T01:20:24.770Z,9.20
2018-12-07T01:22:51.705Z,8.53
2018-12-07T01:25:18.636Z,8.97
2018-12-07T01:27:45.586Z,9.10
2018-12-07T01:30:12.527Z,9.10
2018-12-07T01:32:39.449Z,7.77
2018-12-07T01:35:06.385Z,8.33
2018-12-07T01:37:33.341Z,7.47
2018-12-07T01:40:00.322Z,7.83
2018-12-07T01:42:27.267Z,7.93
2018-12-07T01:44:54.236Z,7.87
2018-12-07T01:47:21.199Z,8.00
2018-12-07T01:49:48.142Z,7.07
2018-12-07T01:52:15.102Z,7.00
2018-12-07T01:54:42.036Z,7.57
2018-12-07T01:57:09.030Z,8.27
2018-12-07T01:59:35.978Z,7.70
2018-12-07T02:02:03.554Z,7.37
2018-12-07T02:04:30.516Z,8.27
2018-12-07T02:06:58.198Z,7.27
2018-12-07T02:09:25.170Z,7.27
2018-12-07T02:11:52.101Z,7.43
2018-12-07T02:14:19.041Z,8.03
2018-12-07T02:16:46.030Z,7.23
2018-12-07T02:19:13.009Z,8.23
2018-12-07T02:21:39.908Z,8.23
2018-12-07T02:24:06.849Z,6.90
2018-12-07T02:26:33.765Z,7.43
2018-12-07T02:29:00.688Z,7.50
2018-12-07T02:31:27.642Z,7.90
2018-12-07T02:33:54.599Z,8.33
2018-12-07T02:36:21.538Z,7.30
2018-12-07T02:38:50.581Z,12.40
2018-12-07T02:41:17.491Z,11.67
2018-12-07T02:43:44.943Z,10.47
2018-12-07T02:46:11.937Z,9.87
2018-12-07T02:48:38.862Z,10.10
2018-12-07T02:51:05.802Z,9.40
2018-12-07T02:53:32.711Z,8.77
2018-12-07T02:55:59.717Z,8.77
2018-12-07T02:58:26.724Z,8.73
2018-12-07T03:00:53.888Z,8.20
2018-12-07T03:03:20.816Z,8.43
2018-12-07T03:05:47.764Z,8.07
2018-12-07T03:08:15.393Z,8.13
2018-12-07T03:10:42.346Z,8.70
2018-12-07T03:13:09.290Z,7.83
2018-12-07T03:15:36.202Z,7.80
2018-12-07T03:18:03.138Z,9.10
2018-12-07T03:20:30.069Z,9.07
2018-12-07T03:22:57.045Z,8.83
2018-12-07T03:25:24.159Z,8.80
2018-12-07T03:27:51.073Z,9.13
2018-12-07T03:30:18.022Z,8.27
2018-12-07T03:32:44.964Z,9.93
2018-12-07T03:35:11.903Z,9.87
2018-12-07T03:37:38.849Z,9.10
2018-12-07T03:40:05.783Z,9.03
2018-12-07T03:42:32.745Z,9.10
2018-12-07T03:44:59.693Z,9.80
2018-12-07T03:47:26.619Z,10.60
2018-12-07T03:49:53.563Z,9.77
2018-12-07T03:52:20.488Z,10.23
2018-12-07T03:54:47.461Z,9.90
2018-12-07T03:57:14.416Z,11.43
2018-12-07T03:59:42.384Z,10.87
2018-12-07T04:02:11.317Z,10.73
2018-12-07T04:04:38.434Z,11.87
2018-12-07T04:07:05.757Z,10.53
2018-12-07T04:09:32.888Z,12.10
2018-12-07T04:12:00.010Z,11.53
2018-12-07T04:14:26.964Z,10.80
2018-12-07T04:16:53.895Z,12.57
2018-12-07T04:19:20.849Z,11.53
2018-12-07T04:21:47.830Z,11.40
2018-12-07T04:24:14.764Z,11.80
2018-12-07T04:26:41.735Z,11.70
2018-12-07T04:29:09.558Z,11.70
2018-12-07T04:31:36.541Z,11.73
2018-12-07T04:34:03.724Z,12.80
2018-12-07T04:36:30.806Z,12.03
2018-12-07T04:38:57.760Z,11.23
2018-12-07T04:41:24.785Z,11.20
2018-12-07T04:43:51.790Z,11.00
2018-12-07T04:46:18.729Z,11.57
2018-12-07T04:48:46.468Z,11.33
2018-12-07T04:51:14.521Z,10.97
2018-12-07T04:53:41.443Z,11.87
2018-12-07T04:56:08.482Z,11.90
2018-12-07T04:58:36.216Z,12.23
2018-12-07T05:01:03.194Z,12.27
2018-12-07T05:03:30.241Z,11.77
2018-12-07T05:05:57.306Z,11.20
2018-12-07T05:08:24.346Z,11.93
2018-12-07T05:10:51.426Z,10.27
2018-12-07T05:13:18.365Z,10.97
2018-12-07T05:15:45.316Z,11.27
2018-12-07T05:18:12.279Z,11.77
2018-12-07T05:20:39.234Z,12.17
2018-12-07T05:23:06.229Z,11.73
2018-12-07T05:25:33.239Z,11.90
2018-12-07T05:28:03.563Z,11.70
2018-12-07T05:30:30.560Z,11.77
2018-12-07T05:32:57.559Z,12.13
2018-12-07T05:35:24.593Z,11.17
2018-12-07T05:37:51.749Z,11.73
2018-12-07T05:40:18.762Z,11.23
2018-12-07T05:42:45.777Z,11.00
2018-12-07T05:45:12.726Z,11.07
2018-12-07T05:47:39.661Z,11.33
2018-12-07T05:50:06.795Z,10.50
2018-12-07T05:52:33.780Z,10.27
2018-12-07T05:55:00.752Z,10.60
2018-12-07T05:57:27.719Z,10.70
2018-12-07T05:59:54.668Z,11.60
2018-12-07T06:02:21.726Z,11.47
2018-12-07T06:04:48.730Z,10.23
2018-12-07T06:07:16.638Z,10.23
2018-12-07T06:09:43.678Z,10.60
2018-12-07T06:12:10.657Z,10.80
2018-12-07T06:14:37.674Z,11.87
2018-12-07T06:17:05.724Z,11.03
2018-12-07T06:19:32.966Z,10.30
2018-12-07T06:22:00.122Z,11.10
2018-12-07T06:24:27.066Z,10.80
2018-12-07T06:26:54.004Z,11.17
2018-12-07T06:29:20.945Z,11.27
2018-12-07T06:31:47.886Z,9.70
2018-12-07T06:34:14.921Z,9.57
2018-12-07T06:36:42.039Z,10.37
2018-12-07T06:39:10.178Z,10.13
2018-12-07T06:41:37.204Z,9.93
2018-12-07T06:44:04.231Z,9.97
2018-12-07T06:46:31.481Z,9.97
2018-12-07T06:49:09.959Z,10.03
2018-12-07T06:51:36.937Z,10.10
2018-12-07T06:54:03.983Z,10.73
2018-12-07T06:56:30.931Z,10.37
2018-12-07T06:58:57.964Z,9.77
2018-12-07T07:01:24.933Z,10.13
2018-12-07T07:03:51.892Z,11.23
2018-12-07T07:06:18.857Z,11.20
2018-12-07T07:08:45.829Z,10.97
2018-12-07T07:11:12.915Z,9.97
2018-12-07T07:13:39.945Z,9.73
2018-12-07T07:16:06.868Z,9.60
2018-12-07T07:18:33.846Z,9.67
2018-12-07T07:21:00.832Z,9.87
2018-12-07T07:23:27.812Z,9.50
2018-12-07T07:25:54.794Z,10.57
2018-12-07T07:28:21.758Z,11.27
2018-12-07T07:30:48.779Z,8.70
2018-12-07T07:33:15.753Z,12.33
2018-12-07T07:35:42.863Z,11.67
2018-12-07T07:38:09.794Z,9.37
2018-12-07T07:40:37.102Z,9.70
2018-12-07T07:43:04.064Z,9.40
2018-12-07T07:45:31.134Z,8.47
2018-12-07T07:47:58.086Z,8.40
2018-12-07T07:50:25.561Z,8.70
2018-12-07T07:52:52.821Z,9.30
2018-12-07T07:55:19.809Z,8.97
2018-12-07T07:57:47.487Z,9.03
2018-12-07T08:00:14.445Z,9.00
2018-12-07T08:02:42.390Z,8.20
2018-12-07T08:05:09.346Z,9.43
2018-12-07T08:07:36.387Z,10.00
2018-12-07T08:10:03.798Z,8.10
2018-12-07T08:12:31.667Z,9.47
2018-12-07T08:14:58.674Z,8.90
2018-12-07T08:17:25.645Z,8.80
2018-12-07T08:22:30.750Z,7.93
2018-12-07T08:24:57.822Z,7.97
2018-12-07T08:27:24.909Z,8.07
2018-12-07T08:29:51.935Z,8.20
2018-12-07T08:32:18.916Z,9.03
2018-12-07T08:34:46.778Z,8.10
2018-12-07T08:37:13.724Z,7.53
2018-12-07T08:39:40.896Z,6.37
2018-12-07T08:42:08.420Z,7.90
2018-12-07T08:44:35.673Z,8.57
2018-12-07T08:47:02.731Z,6.70
2018-12-07T08:49:35.381Z,6.57
2018-12-07T08:52:02.321Z,7.23
2018-12-07T08:54:29.327Z,7.47
2018-12-07T08:56:56.314Z,6.90
2018-12-07T08:59:23.931Z,6.77
2018-12-07T09:01:51.845Z,6.20
2018-12-07T09:04:18.809Z,6.40
2018-12-07T09:06:46.475Z,7.17
2018-12-07T09:09:13.444Z,9.90
2018-12-07T09:11:40.414Z,8.07
2018-12-07T09:14:07.416Z,10.63
2018-12-07T09:16:36.103Z,9.80
2018-12-07T09:19:03.070Z,9.10
2018-12-07T09:21:30.120Z,9.37
2018-12-07T09:23:57.742Z,7.87
2018-12-07T09:26:24.740Z,9.37
2018-12-07T09:28:51.750Z,9.87
2018-12-07T09:31:18.816Z,9.00
2018-12-07T09:33:45.762Z,7.90
2018-12-07T09:36:12.721Z,8.80
2018-12-07T09:38:39.750Z,8.10
2018-12-07T09:41:06.753Z,6.50
2018-12-07T09:43:34.513Z,6.70
2018-12-07T09:46:01.653Z,6.53
2018-12-07T09:48:28.589Z,5.80
2018-12-07T09:50:55.678Z,6.07
2018-12-07T09:53:22.647Z,5.77
2018-12-07T09:55:49.755Z,5.30
2018-12-07T09:58:16.719Z,5.47
2018-12-07T10:00:43.681Z,5.20
2018-12-07T10:03:11.299Z,4.67
2018-12-07T10:05:49.696Z,5.45
2018-12-07T10:08:19.072Z,4.27
2018-12-07T10:10:46.050Z,5.40
2018-12-07T10:13:12.999Z,4.20
2018-12-07T10:15:39.911Z,4.10
2018-12-07T10:18:06.899Z,4.50
2018-12-07T10:20:33.866Z,4.33
2018-12-07T10:23:01.550Z,4.37
2018-12-07T10:25:29.117Z,4.37
2018-12-07T10:27:56.139Z,4.47
2018-12-07T10:30:23.305Z,4.33
2018-12-07T10:32:50.271Z,4.13
2018-12-07T10:35:17.245Z,4.27
2018-12-07T10:37:44.267Z,3.87
2018-12-07T10:40:11.209Z,4.17
2018-12-07T10:42:38.174Z,4.00
2018-12-07T10:45:05.636Z,3.90
2018-12-07T10:47:33.168Z,3.33
2018-12-07T10:50:00.040Z,3.10
2018-12-07T10:52:27.046Z,3.20
2018-12-07T10:54:54.859Z,3.43
2018-12-07T10:57:22.150Z,6.67
2018-12-07T10:59:49.350Z,5.37
2018-12-07T11:02:22.033Z,3.43
2018-12-07T11:04:54.918Z,2.60
2018-12-07T11:07:27.681Z,3.03
2018-12-07T11:10:01.397Z,5.13
2018-12-07T11:12:34.849Z,3.70
2018-12-07T11:15:07.575Z,2.70
2018-12-07T11:17:40.281Z,2.80
2018-12-07T11:20:13.244Z,2.47
2018-12-07T11:22:45.863Z,2.93
2018-12-07T11:25:20.976Z,2.80
2018-12-07T11:27:56.584Z,4.45
2018-12-07T11:30:30.204Z,2.40
2018-12-07T11:33:04.376Z,2.20
2018-12-07T11:35:33.188Z,3.00
2018-12-07T11:38:00.889Z,2.63
2018-12-07T11:40:28.730Z,3.07
2018-12-07T11:42:55.184Z,3.20
2018-12-07T11:45:22.802Z,2.73
2018-12-07T11:47:49.700Z,2.40
2018-12-07T11:50:17.631Z,2.47
2018-12-07T11:52:44.594Z,3.23
2018-12-07T11:55:11.550Z,2.90
2018-12-07T11:57:38.574Z,2.20
2018-12-07T12:00:06.371Z,3.00
2018-12-07T12:02:33.551Z,3.07
2018-12-07T12:05:00.508Z,2.67
2018-12-07T12:07:27.470Z,2.30
2018-12-07T12:09:55.146Z,2.53
2018-12-07T12:12:22.102Z,2.50
2018-12-07T12:14:49.144Z,2.93
2018-12-07T12:17:16.311Z,5.10
2018-12-07T12:19:43.219Z,5.43
2018-12-07T12:22:10.211Z,4.20
2018-12-07T12:24:37.247Z,2.30
2018-12-07T12:27:04.278Z,2.43
2018-12-07T12:29:31.616Z,2.83
2018-12-07T12:31:59.531Z,2.07
2018-12-07T13:03:06.178Z,3.33
2018-12-07T13:05:34.033Z,3.67
2018-12-07T13:08:01.032Z,3.80
2018-12-07T13:10:28.700Z,5.40
2018-12-07T13:12:56.527Z,3.77
2018-12-07T13:15:24.229Z,3.20
2018-12-07T13:17:51.377Z,3.97
2018-12-07T13:20:18.423Z,4.27
2018-12-07T13:22:45.371Z,3.57
2018-12-07T13:25:12.823Z,4.47
2018-12-07T13:27:40.942Z,4.37
2018-12-07T13:30:08.537Z,3.87
2018-12-07T13:32:35.556Z,3.00
2018-12-07T13:35:02.649Z,3.00
2018-12-07T13:37:30.236Z,3.40
2018-12-07T13:39:57.233Z,2.70
2018-12-07T13:42:25.401Z,2.87
2018-12-07T13:44:52.606Z,3.50
2018-12-07T13:47:20.050Z,4.40
2018-12-07T13:49:46.980Z,3.07
2018-12-07T13:52:14.015Z,5.37
2018-12-07T13:54:41.293Z,4.33
2018-12-07T13:57:09.172Z,4.80
2018-12-07T13:59:37.322Z,4.50
2018-12-07T14:02:04.686Z,3.63
2018-12-07T14:04:32.181Z,4.17
2018-12-07T14:06:59.383Z,3.40
2018-12-07T14:09:26.856Z,4.27
2018-12-07T14:11:54.021Z,4.33
2018-12-07T14:14:21.222Z,5.15
2018-12-07T14:16:48.072Z,6.03
2018-12-07T14:19:15.971Z,5.63
2018-12-07T14:21:42.846Z,6.20
2018-12-07T14:24:09.889Z,5.70
2018-12-07T14:26:37.055Z,5.60
2018-12-07T14:29:04.093Z,5.78
2018-12-07T14:31:31.201Z,4.60
2018-12-07T14:33:58.620Z,4.97
2018-12-07T14:36:25.669Z,4.77
2018-12-07T14:38:55.288Z,6.57
2018-12-07T14:41:22.657Z,4.43
2018-12-07T14:43:49.682Z,5.10
2018-12-07T14:46:17.018Z,4.83
2018-12-07T14:48:43.995Z,4.43
2018-12-07T14:51:11.422Z,4.73
2018-12-07T14:53:38.255Z,4.83
2018-12-07T14:56:05.278Z,4.60
2018-12-07T14:58:32.466Z,4.83
2018-12-07T15:00:59.369Z,4.70
2018-12-07T15:03:29.672Z,6.47
2018-12-07T15:05:56.700Z,4.80
2018-12-07T15:08:24.114Z,6.43
2018-12-07T15:10:51.201Z,5.53
2018-12-07T15:13:18.445Z,4.40
2018-12-07T15:15:45.182Z,4.13
2018-12-07T15:18:12.647Z,4.17
2018-12-07T15:20:39.899Z,4.90
2018-12-07T15:23:06.850Z,5.53
2018-12-07T15:25:34.160Z,4.80
2018-12-07T15:28:01.250Z,5.10
2018-12-07T15:30:28.394Z,5.50
2018-12-07T15:32:55.482Z,4.83
2018-12-07T15:35:22.682Z,5.43
2018-12-07T15:37:49.710Z,4.57
2018-12-07T15:40:16.752Z,4.87
2018-12-07T15:42:43.629Z,6.37
2018-12-07T15:45:10.904Z,5.80
2018-12-07T15:47:37.942Z,6.23
2018-12-07T15:50:06.871Z,6.93
2018-12-07T15:52:33.984Z,6.17
2018-12-07T15:55:01.158Z,6.00
2018-12-07T15:57:28.679Z,5.70
2018-12-07T15:59:55.906Z,5.50
2018-12-07T16:02:22.702Z,5.33
2018-12-07T16:04:49.771Z,6.00
2018-12-07T16:07:21.673Z,5.00
2018-12-07T16:09:49.462Z,5.00
2018-12-07T16:12:16.396Z,5.23
2018-12-07T16:14:43.652Z,4.33
2018-12-07T16:17:10.509Z,4.80
2018-12-07T16:19:37.735Z,6.13
2018-12-07T16:22:04.578Z,5.37
2018-12-07T16:24:31.741Z,4.97
2018-12-07T16:26:58.674Z,4.60
2018-12-07T16:29:25.944Z,5.37
2018-12-07T16:31:54.569Z,6.53
2018-12-07T16:34:21.735Z,6.13
2018-12-07T16:36:48.611Z,4.77
2018-12-07T16:39:15.651Z,4.97
2018-12-07T16:41:42.931Z,8.03
2018-12-07T16:44:09.975Z,5.93
2018-12-07T16:46:37.002Z,5.57
2018-12-07T16:49:04.884Z,5.00
2018-12-07T16:51:32.305Z,7.63
2018-12-07T16:53:59.531Z,5.53
2018-12-07T16:56:27.324Z,8.23
2018-12-07T16:58:54.552Z,16.67
2018-12-07T17:01:22.340Z,6.50
2018-12-07T17:03:49.457Z,7.17
2018-12-07T17:06:17.451Z,7.43
2018-12-07T17:08:44.826Z,7.20
2018-12-07T17:11:12.731Z,7.00
2018-12-07T17:13:39.960Z,7.77
2018-12-07T17:16:07.000Z,9.67
2018-12-07T17:18:34.113Z,7.97
2018-12-07T17:21:01.338Z,8.47
2018-12-07T17:23:28.330Z,8.30
2018-12-07T17:25:56.289Z,7.63
2018-12-07T17:28:23.232Z,6.90
2018-12-07T17:30:51.162Z,7.33
2018-12-07T17:33:19.355Z,9.47
2018-12-07T17:35:48.888Z,9.20
2018-12-07T17:38:16.009Z,8.00
2018-12-07T17:40:44.047Z,21.50
2018-12-07T17:43:11.628Z,18.83
2018-12-07T17:45:38.852Z,19.37
2018-12-07T17:48:05.687Z,27.13
2018-12-07T17:50:32.964Z,16.67
2018-12-07T17:52:59.803Z,11.07
2018-12-07T17:55:26.876Z,9.07
2018-12-07T17:57:53.978Z,8.73
2018-12-07T18:00:22.159Z,8.43
2018-12-07T18:02:48.950Z,7.17
2018-12-07T18:05:16.070Z,7.77
2018-12-07T18:10:17.029Z,7.20
2018-12-07T18:12:44.260Z,9.13
2018-12-07T18:20:30.061Z,22.26
2018-12-07T18:22:57.134Z,7.30
2018-12-07T18:25:30.282Z,19.03
2018-12-07T18:27:57.332Z,8.07
2018-12-07T18:30:24.641Z,8.27
2018-12-07T18:32:51.757Z,6.53
2018-12-07T18:35:18.748Z,7.53
2018-12-07T18:37:46.015Z,6.73
2018-12-07T18:40:13.182Z,6.60
2018-12-07T18:42:40.395Z,7.27
2018-12-07T18:45:07.673Z,7.07
2018-12-07T18:47:34.644Z,6.87
2018-12-07T18:50:01.778Z,7.20
2018-12-07T18:52:28.819Z,6.80
2018-12-07T18:54:55.920Z,7.80
2018-12-07T18:57:23.006Z,7.47
2018-12-07T18:59:50.124Z,7.90
2018-12-07T19:02:24.840Z,9.23
2018-12-07T19:04:51.920Z,7.07
2018-12-07T19:07:23.971Z,8.87
2018-12-07T19:09:51.372Z,10.67
2018-12-07T19:12:18.668Z,6.07
2018-12-07T19:15:15.665Z,25.67
2018-12-07T19:23:56.909Z,47.50
2018-12-07T19:26:25.658Z,20.88
2018-12-07T19:29:19.956Z,9.30
2018-12-07T19:32:18.873Z,16.47
2018-12-07T19:34:46.051Z,9.93
2018-12-07T19:53:06.285Z,4.97
2018-12-07T19:55:33.561Z,6.10
2018-12-07T19:58:02.527Z,5.60
2018-12-07T20:00:31.435Z,5.93
2018-12-07T20:02:59.740Z,9.03
2018-12-07T20:05:27.666Z,7.10
2018-12-07T20:07:55.242Z,7.70
2018-12-07T20:10:24.069Z,7.67
2018-12-07T20:12:51.728Z,6.07
2018-12-07T20:15:19.711Z,6.20
2018-12-07T20:17:48.322Z,5.90
2018-12-07T20:20:15.701Z,6.57
2018-12-07T20:22:45.372Z,10.57
2018-12-07T20:25:13.124Z,8.03
2018-12-07T20:27:41.856Z,8.67
2018-12-07T20:30:10.695Z,11.43
2018-12-07T20:32:38.423Z,9.63
2018-12-07T20:35:06.923Z,9.40
2018-12-07T20:43:43.675Z,8.70
2018-12-07T20:46:14.960Z,7.67
2018-12-07T20:48:42.122Z,9.00
2018-12-07T20:51:09.465Z,6.77
2018-12-07T20:53:38.791Z,10.60
2018-12-07T20:56:07.151Z,9.37
2018-12-07T20:58:34.292Z,7.53
2018-12-07T21:01:01.751Z,5.63
2018-12-07T21:04:27.926Z,6.40
2018-12-07T21:08:04.512Z,5.80
2018-12-07T21:11:13.004Z,4.93
2018-12-07T21:17:53.045Z,4.27
2018-12-07T21:20:24.704Z,3.53
2018-12-07T21:22:51.859Z,4.07
2018-12-07T21:25:19.021Z,3.50
2018-12-07T21:27:46.111Z,4.20
2018-12-07T21:30:37.901Z,4.37
2018-12-07T21:33:05.129Z,3.87
2018-12-07T21:36:42.819Z,3.23
2018-12-07T21:39:17.542Z,4.30
2018-12-07T21:41:45.247Z,6.20
2018-12-07T21:44:12.444Z,6.33
2018-12-07T21:46:40.777Z,5.17
2018-12-07T21:49:08.269Z,3.43
2018-12-07T21:52:14.939Z,3.10
2018-12-07T21:54:42.345Z,13.77
2018-12-07T21:57:09.166Z,19.50
2018-12-07T21:59:35.907Z,31.80
2018-12-07T22:02:04.147Z,31.80
2018-12-07T22:04:31.931Z,27.27
2018-12-07T22:07:01.430Z,17.60
2018-12-07T22:09:29.303Z,17.87
2018-12-07T22:11:56.357Z,11.67
2018-12-07T22:14:23.383Z,8.83
2018-12-07T22:16:50.323Z,9.03
2018-12-07T22:19:17.391Z,7.23
2018-12-07T22:21:44.364Z,12.20
2018-12-07T22:24:11.399Z,11.60
2018-12-07T22:26:38.483Z,12.90
2018-12-07T22:34:00.385Z,7.63
2018-12-07T22:36:27.630Z,15.20
2018-12-07T22:38:54.370Z,13.77
2018-12-07T22:41:21.636Z,10.10
2018-12-07T22:43:48.624Z,10.10
2018-12-07T22:46:15.616Z,9.63
2018-12-07T22:48:42.654Z,6.93
2018-12-07T22:51:09.585Z,5.93
2018-12-07T22:53:36.549Z,4.33
2018-12-07T22:56:03.515Z,2.73
2018-12-07T22:58:30.458Z,3.67
2018-12-07T23:00:57.433Z,3.43
2018-12-07T23:03:24.530Z,2.40
2018-12-07T23:05:51.482Z,2.57
2018-12-07T23:08:18.407Z,1.90
2018-12-07T23:10:45.426Z,2.30
2018-12-07T23:13:12.380Z,2.60
2018-12-07T23:15:39.360Z,2.50
2018-12-07T23:18:06.369Z,2.00
2018-12-07T23:20:33.342Z,2.50
2018-12-07T23:23:00.279Z,1.73
2018-12-07T23:25:27.283Z,2.20
2018-12-07T23:27:54.232Z,1.90
2018-12-07T23:30:21.196Z,2.40
2018-12-07T23:32:48.172Z,2.30
2018-12-07T23:35:15.092Z,2.33
2018-12-07T23:37:42.014Z,1.50
2018-12-07T23:40:08.967Z,2.00
2018-12-07T23:42:35.988Z,2.53
2018-12-07T23:45:03.020Z,1.90
2018-12-07T23:47:29.967Z,2.77
2018-12-07T23:49:56.969Z,2.20
2018-12-07T23:52:24.669Z,1.63
2018-12-07T23:54:53.610Z,1.83
2018-12-07T23:57:20.533Z,1.50
2018-12-07T23:59:47.587Z,1.70
